Time;durP1;ratioP1;P1;durP2;ratioP2;P2;SDS_P1;SDS_P2;PMS_P1;PMS_P2;Temp;Humidity;BMP_temperature;BMP_pressure;BME280_temperature;BME280_humidity;BME280_pressure;Samples;Min_cycle;Max_cycle;Signal;HPM_P1;HPM_P2
2022/01/22 00:01:35;;;;;;;24.48;8.43;;;-3.00;99.90;;;;;;4356527;28;658109;-70
2022/01/22 00:04:23;;;;;;;28.10;8.00;;;-3.00;99.90;;;;;;4360117;28;657677;-70
2022/01/22 00:07:10;;;;;;;22.83;8.30;;;-2.90;99.90;;;;;;4378792;28;658453;-70
2022/01/22 00:10:03;;;;;;;27.10;8.07;;;-2.90;99.90;;;;;;4359989;28;657410;-70
2022/01/22 00:14:23;;;;;;;18.33;7.17;;;-2.90;99.90;;;;;;4355931;28;657755;-70
2022/01/22 00:16:17;;;;;;;22.83;7.10;;;-2.90;99.90;;;;;;4330306;28;657687;-70
2022/01/22 00:19:08;;;;;;;21.77;6.67;;;-2.90;99.90;;;;;;4358749;28;658652;-70
2022/01/22 00:21:56;;;;;;;21.17;6.30;;;-2.80;99.90;;;;;;4360683;28;657587;-70
2022/01/22 00:24:46;;;;;;;16.03;6.43;;;-2.80;99.90;;;;;;4360578;28;657538;-70
2022/01/22 00:27:33;;;;;;;17.23;5.50;;;-2.80;99.90;;;;;;4359757;28;657779;-70
2022/01/22 00:30:22;;;;;;;22.73;7.03;;;-2.80;99.90;;;;;;4378509;28;657284;-70
2022/01/22 00:33:11;;;;;;;22.53;6.07;;;-2.70;99.90;;;;;;4355379;28;658369;-70
2022/01/22 00:35:58;;;;;;;20.43;6.10;;;-2.70;99.90;;;;;;4359351;28;657684;-70
2022/01/22 00:38:46;;;;;;;14.33;5.83;;;-2.70;99.90;;;;;;4377709;28;657504;-70
2022/01/22 00:41:33;;;;;;;17.17;6.07;;;-2.70;99.90;;;;;;4359739;28;657633;-69
2022/01/22 00:44:21;;;;;;;16.23;5.33;;;-2.70;99.90;;;;;;4382276;28;657366;-70
2022/01/22 00:47:09;;;;;;;17.20;5.67;;;-2.70;99.90;;;;;;4355605;28;658697;-70
2022/01/22 00:49:58;;;;;;;20.03;5.80;;;-2.70;99.90;;;;;;4377971;28;657534;-70
2022/01/22 00:52:46;;;;;;;15.57;5.57;;;-2.70;99.90;;;;;;4378132;28;657326;-70
2022/01/22 00:55:34;;;;;;;20.60;6.50;;;-2.70;99.90;;;;;;4355840;28;658832;-70
2022/01/22 00:58:21;;;;;;;18.73;6.37;;;-2.70;99.90;;;;;;4377557;28;657695;-70
2022/01/22 01:01:09;;;;;;;19.53;6.13;;;-2.70;99.90;;;;;;4359339;28;658157;-70
2022/01/22 01:04:01;;;;;;;17.67;6.10;;;-2.70;99.90;;;;;;4372415;28;657851;-71
2022/01/22 01:06:50;;;;;;;19.73;5.43;;;-2.70;99.90;;;;;;4327423;28;658248;-70
2022/01/22 01:09:39;;;;;;;14.20;5.90;;;-2.70;99.90;;;;;;4327398;28;657989;-71
2022/01/22 01:12:28;;;;;;;20.17;6.50;;;-2.70;99.90;;;;;;4336530;28;657581;-71
2022/01/22 01:15:24;;;;;;;18.07;6.37;;;-2.70;99.90;;;;;;4345681;28;657974;-70
2022/01/22 01:34:11;;;;;;;13.87;5.40;;;-2.60;99.90;;;;;;4320990;28;658457;-71
2022/01/22 01:37:05;;;;;;;20.00;6.53;;;-2.70;99.90;;;;;;4326719;28;657582;-71
2022/01/22 01:40:01;;;;;;;15.60;6.00;;;-2.70;99.90;;;;;;4304550;28;658615;-71
2022/01/22 01:43:05;;;;;;;17.20;6.37;;;-2.70;99.90;;;;;;4325703;28;657446;-71
2022/01/22 01:45:56;;;;;;;19.98;6.18;;;-2.60;99.90;;;;;;4301458;28;658843;-70
2022/01/22 01:48:49;;;;;;;18.47;6.13;;;-2.70;99.90;;;;;;4325166;28;658128;-71
2022/01/22 01:51:39;;;;;;;19.67;6.33;;;-2.70;99.90;;;;;;4319373;28;657793;-70
2022/01/22 01:54:44;;;;;;;20.83;6.83;;;-2.70;99.90;;;;;;4319045;28;657696;-70
2022/01/22 01:57:40;;;;;;;18.90;6.53;;;-2.60;99.90;;;;;;4322689;28;657407;-70
2022/01/22 02:00:34;;;;;;;17.83;6.20;;;-2.60;99.90;;;;;;4322464;28;657407;-70
2022/01/22 02:03:25;;;;;;;20.10;6.07;;;-2.70;99.90;;;;;;4322355;28;657275;-70
2022/01/22 02:06:13;;;;;;;19.70;6.10;;;-2.70;99.90;;;;;;4345922;28;657721;-70
2022/01/22 02:09:09;;;;;;;19.50;5.40;;;-2.80;99.90;;;;;;4353997;28;657952;-71
2022/01/22 02:12:06;;;;;;;17.93;6.17;;;-2.80;99.90;;;;;;4354517;28;657724;-71
2022/01/22 02:24:19;;;;;;;17.47;5.87;;;-2.70;99.90;;;;;;4353960;28;657714;-69
2022/01/22 02:27:08;;;;;;;17.43;5.77;;;-2.80;99.90;;;;;;4352914;28;658192;-70
2022/01/22 02:30:01;;;;;;;17.87;6.30;;;-2.80;99.90;;;;;;4354134;28;657982;-71
2022/01/22 02:33:07;;;;;;;19.03;6.97;;;-2.70;99.90;;;;;;4334047;28;657122;-70
2022/01/22 02:36:02;;;;;;;17.40;5.87;;;-2.80;99.90;;;;;;4328191;28;658472;-70
2022/01/22 02:39:06;;;;;;;17.03;6.50;;;-2.70;99.90;;;;;;4331677;28;657512;-70
2022/01/22 02:41:59;;;;;;;21.70;6.10;;;-2.70;99.90;;;;;;4334495;28;658039;-70
2022/01/22 02:44:52;;;;;;;18.37;6.33;;;-2.70;99.90;;;;;;4353690;28;657630;-71
2022/01/22 02:47:41;;;;;;;16.57;5.73;;;-2.70;99.90;;;;;;4331084;28;658612;-71
2022/01/22 02:50:30;;;;;;;17.60;6.27;;;-2.70;99.90;;;;;;4358068;28;657553;-71
2022/01/22 02:53:18;;;;;;;14.80;5.87;;;-2.80;99.90;;;;;;4376395;28;657640;-70
2022/01/22 02:56:10;;;;;;;20.20;5.87;;;-2.80;99.90;;;;;;4351577;28;659117;-70
2022/01/22 02:59:01;;;;;;;20.50;6.85;;;-2.70;99.90;;;;;;4339276;28;658104;-71
2022/01/22 03:01:50;;;;;;;22.93;6.40;;;-2.80;99.90;;;;;;4357754;28;657866;-71
2022/01/22 03:04:39;;;;;;;16.70;6.40;;;-2.70;99.90;;;;;;4368209;28;657656;-71
2022/01/22 03:07:28;;;;;;;17.00;5.77;;;-2.80;99.90;;;;;;4376487;28;658206;-70
2022/01/22 03:10:25;;;;;;;18.30;6.37;;;-2.70;99.90;;;;;;4352970;28;658051;-70
2022/01/22 03:14:02;;;;;;;18.53;6.40;;;-2.70;99.90;;;;;;4346836;28;657792;-70
2022/01/22 03:23:07;;;;;;;15.13;5.80;;;-2.80;99.90;;;;;;4353645;28;658293;-70
2022/01/22 03:29:10;;;;;;;17.00;5.70;;;-2.90;99.90;;;;;;4330584;28;657930;-71
2022/01/22 03:32:00;;;;;;;16.52;6.25;;;-3.00;99.90;;;;;;4347809;28;657843;-71
2022/01/22 03:35:01;;;;;;;16.80;4.80;;;-3.00;99.90;;;;;;4370145;28;657334;-71
2022/01/22 03:37:53;;;;;;;17.17;4.97;;;-3.00;99.90;;;;;;4331646;28;657691;-71
2022/01/22 03:40:48;;;;;;;15.07;5.03;;;-2.90;99.90;;;;;;4352560;28;658822;-70
2022/01/22 03:43:38;;;;;;;15.77;4.83;;;-2.90;99.90;;;;;;4329973;28;658010;-70
2022/01/22 03:46:31;;;;;;;9.37;4.30;;;-3.00;99.90;;;;;;4353317;28;658034;-70
2022/01/22 03:49:20;;;;;;;12.67;5.03;;;-3.10;99.90;;;;;;4335378;28;657331;-71
2022/01/22 03:52:17;;;;;;;10.20;4.60;;;-3.20;99.90;;;;;;4376964;28;657500;-70
2022/01/22 03:55:15;;;;;;;15.10;4.10;;;-3.30;99.90;;;;;;4356647;28;658718;-71
2022/01/22 03:58:05;;;;;;;8.90;4.30;;;-3.40;99.90;;;;;;4333563;28;658627;-71
2022/01/22 04:01:15;;;;;;;8.33;3.77;;;-3.50;99.90;;;;;;4368512;28;656631;-70
2022/01/22 04:04:09;;;;;;;10.75;4.20;;;-3.70;99.90;;;;;;4352631;28;657471;-71
2022/01/22 04:10:05;;;;;;;15.27;3.87;;;-3.90;99.90;;;;;;4337174;28;657668;-71
2022/01/22 04:12:58;;;;;;;9.55;4.05;;;-4.00;99.90;;;;;;4362515;28;657687;-71
2022/01/22 04:15:48;;;;;;;8.60;3.83;;;-4.10;99.90;;;;;;4357508;28;657321;-70
2022/01/22 04:25:02;;;;;;;10.33;4.23;;;-4.10;99.90;;;;;;4321178;28;657885;-71
2022/01/22 04:27:51;;;;;;;9.63;3.97;;;-4.00;99.90;;;;;;4325148;28;657749;-70
2022/01/22 04:30:38;;;;;;;11.53;4.27;;;-3.90;99.90;;;;;;4325906;28;656760;-71
2022/01/22 04:33:31;;;;;;;8.10;3.80;;;-3.80;99.90;;;;;;4343707;28;658158;-70
2022/01/22 04:36:25;;;;;;;9.47;4.00;;;-3.70;99.90;;;;;;4326339;28;656383;-71
2022/01/22 04:39:19;;;;;;;9.13;3.57;;;-3.60;99.90;;;;;;4322884;28;656964;-70
2022/01/22 04:42:10;;;;;;;9.40;3.87;;;-3.60;99.90;;;;;;4321235;28;656919;-70
2022/01/22 04:45:10;;;;;;;9.73;4.07;;;-3.50;99.90;;;;;;4343789;28;656832;-71
2022/01/22 04:48:13;;;;;;;11.02;3.88;;;-3.60;99.90;;;;;;4310915;28;656607;-71
2022/01/22 04:57:12;;;;;;;7.70;3.63;;;-3.70;99.90;;;;;;4298733;28;657076;-71
2022/01/22 04:59:59;;;;;;;7.57;3.43;;;-3.70;99.90;;;;;;4361197;28;656865;-69
2022/01/22 05:02:47;;;;;;;6.93;3.87;;;-3.70;99.90;;;;;;4379065;28;657140;-70
2022/01/22 05:05:35;;;;;;;7.40;3.53;;;-3.80;99.90;;;;;;4360360;28;657982;-71
2022/01/22 05:08:22;;;;;;;9.80;3.83;;;-3.80;99.90;;;;;;4379235;28;656440;-70
2022/01/22 05:11:10;;;;;;;12.00;4.67;;;-3.80;99.90;;;;;;4356371;28;657480;-70
2022/01/22 05:14:00;;;;;;;8.60;3.90;;;-3.80;99.90;;;;;;4377767;28;657656;-71
2022/01/22 05:16:47;;;;;;;9.93;4.50;;;-3.80;99.90;;;;;;4378931;28;656831;-70
2022/01/22 05:19:46;;;;;;;9.10;4.93;;;-3.90;99.90;;;;;;4356350;28;658291;-70
2022/01/22 05:22:50;;;;;;;10.10;3.83;;;-3.90;99.90;;;;;;4337676;28;656361;-71
2022/01/22 05:25:47;;;;;;;8.40;4.03;;;-3.90;99.90;;;;;;4336151;28;658122;-70
2022/01/22 05:32:19;;;;;;;9.38;3.67;;;-3.80;99.90;;;;;;4355704;28;656381;-70
2022/01/22 05:38:17;;;;;;;8.87;4.43;;;-3.80;99.90;;;;;;4335496;28;657825;-71
2022/01/22 05:41:05;;;;;;;5.00;2.33;;;-3.80;99.90;;;;;;4360955;28;657016;-71
2022/01/22 05:43:58;;;;;;;10.48;4.63;;;-3.80;99.90;;;;;;4363179;28;656524;-70
2022/01/22 05:46:48;;;;;;;10.93;5.00;;;-3.80;99.90;;;;;;4358488;28;658678;-70
2022/01/22 05:49:44;;;;;;;8.93;4.33;;;-3.70;99.90;;;;;;4358965;28;658268;-70
2022/01/22 05:52:40;;;;;;;10.70;4.03;;;-3.70;99.90;;;;;;4359195;28;656889;-70
2022/01/22 06:01:48;;;;;;;15.73;4.50;;;-3.60;99.90;;;;;;4339452;28;657768;-71
2022/01/22 06:04:37;;;;;;;11.23;4.93;;;-3.60;99.90;;;;;;4376878;28;657586;-71
2022/01/22 06:07:25;;;;;;;12.83;4.70;;;-3.60;99.90;;;;;;4354675;28;658484;-71
2022/01/22 06:10:17;;;;;;;8.03;3.93;;;-3.50;99.90;;;;;;4376889;28;658002;-70
2022/01/22 06:13:13;;;;;;;21.40;4.20;;;-3.50;99.90;;;;;;4354758;28;657115;-70
2022/01/22 06:16:00;;;;;;;8.40;3.80;;;-3.50;99.90;;;;;;4328462;28;658550;-70
2022/01/22 06:18:48;;;;;;;10.27;4.30;;;-3.50;99.90;;;;;;4361572;28;656158;-71
2022/01/22 06:21:37;;;;;;;9.60;4.03;;;-3.50;99.90;;;;;;4379991;28;657974;-70
2022/01/22 06:24:25;;;;;;;6.80;3.07;;;-3.40;99.90;;;;;;4359422;28;656957;-70
2022/01/22 06:27:13;;;;;;;10.27;4.00;;;-3.50;99.90;;;;;;4376952;28;656888;-70
2022/01/22 06:30:01;;;;;;;12.02;4.93;;;-3.50;99.90;;;;;;4357785;28;658485;-70
2022/01/22 06:32:53;;;;;;;9.37;4.07;;;-3.50;99.90;;;;;;4358226;28;657714;-71
2022/01/22 06:35:44;;;;;;;11.63;4.97;;;-3.50;99.90;;;;;;4352563;28;656952;-70
2022/01/22 06:38:36;;;;;;;8.63;4.03;;;-3.40;99.90;;;;;;4353410;28;658166;-70
2022/01/22 06:44:34;;;;;;;13.00;5.63;;;-3.40;99.90;;;;;;4342996;28;657854;-70
2022/01/22 06:47:23;;;;;;;14.20;6.53;;;-3.40;99.90;;;;;;4352119;28;658477;-70
2022/01/22 06:50:12;;;;;;;13.83;5.80;;;-3.40;99.90;;;;;;4354366;28;657869;-70
2022/01/22 06:53:01;;;;;;;8.00;4.30;;;-3.30;99.90;;;;;;4358233;28;658773;-70
2022/01/22 06:55:57;;;;;;;14.27;6.23;;;-3.30;99.90;;;;;;4359097;28;656519;-71
2022/01/22 06:58:46;;;;;;;19.47;6.00;;;-3.30;99.90;;;;;;4331064;28;658567;-71
2022/01/22 07:01:34;;;;;;;14.40;6.40;;;-3.30;99.90;;;;;;4357339;28;658093;-71
2022/01/22 07:04:24;;;;;;;11.10;5.03;;;-3.40;99.90;;;;;;4376410;28;657516;-70
2022/01/22 07:07:16;;;;;;;12.60;5.93;;;-3.30;99.90;;;;;;4321545;28;658504;-70
2022/01/22 07:10:08;;;;;;;17.30;6.15;;;-3.30;99.90;;;;;;4325546;28;658032;-70
2022/01/22 07:13:00;;;;;;;16.10;6.63;;;-3.30;99.90;;;;;;4324496;28;658416;-70
2022/01/22 07:15:48;;;;;;;17.57;7.37;;;-3.30;99.90;;;;;;4303243;28;657721;-70
2022/01/22 07:18:36;;;;;;;15.53;7.00;;;-3.30;99.90;;;;;;4343608;28;658395;-70
2022/01/22 07:21:23;;;;;;;16.97;6.83;;;-3.30;99.90;;;;;;4325334;28;657602;-70
2022/01/22 07:24:30;;;;;;;20.93;7.40;;;-3.30;99.90;;;;;;4346585;28;657945;-70
2022/01/22 07:27:17;;;;;;;15.73;6.77;;;-3.30;99.90;;;;;;4323388;28;657506;-70
2022/01/22 07:30:07;;;;;;;24.20;8.93;;;-3.40;99.90;;;;;;4329076;28;658367;-70
2022/01/22 07:33:02;;;;;;;25.70;8.23;;;-3.30;99.90;;;;;;4329385;28;657970;-70
2022/01/22 07:35:51;;;;;;;22.80;8.10;;;-3.20;99.90;;;;;;4324783;28;658541;-70
2022/01/22 07:38:39;;;;;;;26.60;8.93;;;-3.20;99.90;;;;;;4328844;28;657807;-70
2022/01/22 07:41:27;;;;;;;18.47;8.13;;;-3.20;99.90;;;;;;4347509;28;657661;-69
2022/01/22 07:44:15;;;;;;;20.97;8.53;;;-3.10;99.90;;;;;;4328837;28;657473;-70
2022/01/22 07:47:04;;;;;;;27.33;8.98;;;-3.20;99.90;;;;;;4346994;28;658519;-70
2022/01/22 07:49:52;;;;;;;20.20;7.90;;;-3.20;99.90;;;;;;4324895;28;657881;-69
2022/01/22 07:52:39;;;;;;;24.90;7.97;;;-3.20;99.90;;;;;;4327566;28;657659;-70
2022/01/22 07:55:27;;;;;;;20.13;8.93;;;-3.10;99.90;;;;;;4346831;28;657175;-69
2022/01/22 07:58:14;;;;;;;27.80;8.50;;;-3.00;99.90;;;;;;4324741;28;659002;-70
2022/01/22 08:01:14;;;;;;;26.67;9.23;;;-3.10;99.90;;;;;;4346803;28;657840;-70
2022/01/22 08:04:03;;;;;;;21.77;8.57;;;-3.00;99.90;;;;;;4324327;28;657529;-70
2022/01/22 08:09:53;;;;;;;20.83;8.20;;;-2.60;99.90;;;;;;4313072;28;657517;-71
2022/01/22 08:12:53;;;;;;;19.43;8.37;;;-2.40;99.90;;;;;;4347748;28;658193;-70
2022/01/22 08:16:17;;;;;;;23.53;8.80;;;-2.40;99.90;;;;;;4320768;28;658107;-70
2022/01/22 08:19:09;;;;;;;20.13;7.73;;;-2.40;99.90;;;;;;4324995;28;657334;-70
2022/01/22 08:22:36;;;;;;;23.13;9.30;;;-2.30;99.90;;;;;;4318773;28;658096;-70
2022/01/22 08:25:24;;;;;;;20.77;9.13;;;-2.20;99.90;;;;;;4302490;28;658440;-71
2022/01/22 08:31:45;;;;;;;22.77;7.33;;;-2.00;99.90;;;;;;4301624;28;658450;-69
2022/01/22 08:37:39;;;;;;;15.10;6.30;;;-1.70;99.90;;;;;;4298241;28;658066;-70
2022/01/22 08:40:27;;;;;;;22.17;8.73;;;-1.80;99.90;;;;;;4342622;28;657867;-69
2022/01/22 08:43:14;;;;;;;20.90;7.83;;;-1.80;99.90;;;;;;4338745;28;658458;-70
2022/01/22 08:46:03;;;;;;;27.08;9.00;;;-1.90;99.90;;;;;;4377247;28;658688;-70
2022/01/22 08:48:51;;;;;;;25.37;9.13;;;-1.90;99.90;;;;;;4355576;28;657522;-69
2022/01/22 08:51:40;;;;;;;25.23;8.87;;;-1.80;99.90;;;;;;4358557;28;658065;-69
2022/01/22 08:54:27;;;;;;;22.53;8.73;;;-1.50;99.90;;;;;;4378629;28;657965;-69
2022/01/22 08:57:15;;;;;;;22.20;7.50;;;-1.30;99.90;;;;;;4359348;28;658359;-70
2022/01/22 09:00:04;;;;;;;12.90;5.88;;;-1.30;99.90;;;;;;4364370;28;658196;-70
2022/01/22 09:02:52;;;;;;;24.13;8.87;;;-1.30;99.90;;;;;;4381468;28;657430;-69
2022/01/22 09:06:22;;;;;;;24.30;8.73;;;-1.20;99.90;;;;;;4355216;28;657499;-69
2022/01/22 09:09:12;;;;;;;21.87;7.57;;;-1.20;99.90;;;;;;4336294;28;657761;-69
2022/01/22 09:12:00;;;;;;;19.73;7.37;;;-1.20;99.90;;;;;;4355537;28;658953;-69
2022/01/22 09:14:49;;;;;;;18.87;6.80;;;-1.00;99.90;;;;;;4368645;28;658323;-70
2022/01/22 09:17:37;;;;;;;17.93;7.57;;;-0.80;99.90;;;;;;4376703;28;657087;-69
2022/01/22 09:20:43;;;;;;;14.60;5.97;;;-0.80;99.90;;;;;;4359109;28;658127;-69
2022/01/22 09:23:31;;;;;;;20.37;7.87;;;-0.80;99.90;;;;;;4355232;28;658275;-69
2022/01/22 09:26:23;;;;;;;16.00;7.30;;;-0.80;99.90;;;;;;4358630;28;657453;-69
2022/01/22 09:29:10;;;;;;;19.77;6.70;;;-0.70;99.90;;;;;;4354323;28;659016;-69
2022/01/22 09:31:58;;;;;;;18.73;7.40;;;-0.80;99.90;;;;;;4360158;28;657387;-70
2022/01/22 09:34:46;;;;;;;16.17;6.33;;;-0.80;99.90;;;;;;4381632;28;658151;-69
2022/01/22 09:37:33;;;;;;;22.03;6.20;;;-0.80;99.90;;;;;;4358596;28;657618;-70
2022/01/22 09:40:24;;;;;;;19.63;6.37;;;-0.90;99.90;;;;;;4377522;28;658680;-69
2022/01/22 09:43:14;;;;;;;12.83;4.90;;;-0.90;99.90;;;;;;4354549;28;657305;-68
2022/01/22 09:46:02;;;;;;;18.77;5.63;;;-0.90;99.90;;;;;;4354626;28;658190;-68
2022/01/22 09:48:50;;;;;;;22.10;7.33;;;-0.80;99.90;;;;;;4358834;28;657760;-69
2022/01/22 09:51:38;;;;;;;23.53;7.50;;;-0.80;99.90;;;;;;4374550;28;657478;-69
2022/01/22 09:54:26;;;;;;;17.85;7.22;;;-0.60;99.90;;;;;;4377503;28;658852;-69
2022/01/22 09:57:14;;;;;;;21.17;6.97;;;-0.60;99.90;;;;;;4358380;28;657783;-69
2022/01/22 10:00:04;;;;;;;16.73;6.17;;;-0.50;99.90;;;;;;4377593;28;657730;-69
2022/01/22 10:02:52;;;;;;;12.27;4.43;;;-0.40;99.90;;;;;;4353896;28;658056;-70
2022/01/22 10:05:40;;;;;;;17.47;5.90;;;-0.30;99.90;;;;;;4358223;28;659179;-69
2022/01/22 10:08:31;;;;;;;18.50;6.13;;;-0.30;99.90;;;;;;4376638;28;657991;-69
2022/01/22 10:11:19;;;;;;;17.07;5.87;;;-0.20;99.90;;;;;;4358033;28;657246;-69
2022/01/22 10:14:07;;;;;;;13.93;5.10;;;-0.30;99.90;;;;;;4375477;28;657649;-69
2022/01/22 10:16:56;;;;;;;19.83;6.77;;;-0.20;99.90;;;;;;4358883;28;657452;-69
2022/01/22 10:19:50;;;;;;;19.33;6.33;;;-0.10;99.90;;;;;;4358794;28;657593;-69
2022/01/22 10:22:44;;;;;;;16.57;5.97;;;0.00;99.90;;;;;;4354324;28;658054;-70
2022/01/22 10:26:20;;;;;;;20.27;6.18;;;-0.10;99.90;;;;;;4337840;28;657278;-69
2022/01/22 10:29:10;;;;;;;15.50;5.43;;;-0.30;99.90;;;;;;4325623;28;657724;-70
2022/01/22 10:32:14;;;;;;;16.40;5.63;;;-0.60;99.90;;;;;;4345022;28;658154;-69
2022/01/22 10:35:23;;;;;;;21.97;5.93;;;-0.60;99.90;;;;;;4336987;28;657854;-69
2022/01/22 10:38:10;;;;;;;15.98;5.32;;;-0.50;99.90;;;;;;4314341;28;658302;-69
2022/01/22 10:40:58;;;;;;;16.23;5.03;;;-0.50;99.90;;;;;;4346032;28;658089;-70
2022/01/22 10:43:54;;;;;;;11.83;4.83;;;-0.60;99.90;;;;;;4363960;28;657871;-68
2022/01/22 10:46:47;;;;;;;14.37;5.57;;;-0.70;99.90;;;;;;4336884;28;657931;-69
2022/01/22 10:49:36;;;;;;;17.35;5.60;;;-0.60;99.90;;;;;;4314316;28;658826;-70
2022/01/22 10:52:23;;;;;;;15.87;5.27;;;-0.50;99.90;;;;;;4339897;28;658189;-69
2022/01/22 10:55:48;;;;;;;14.30;4.37;;;-0.60;99.90;;;;;;4359085;28;659083;-69
2022/01/22 10:58:36;;;;;;;11.43;3.57;;;-0.70;99.90;;;;;;4335670;28;657456;-69
2022/01/22 11:01:24;;;;;;;11.97;4.87;;;-0.80;99.90;;;;;;4340202;28;657906;-69
2022/01/22 11:04:12;;;;;;;8.63;3.47;;;-0.90;99.90;;;;;;4358926;28;657833;-69
2022/01/22 11:07:40;;;;;;;10.53;4.50;;;-0.90;99.90;;;;;;4342155;28;656809;-69
2022/01/22 11:10:30;;;;;;;13.57;4.80;;;-0.80;99.90;;;;;;4336610;28;657616;-69
2022/01/22 11:13:19;;;;;;;12.20;5.10;;;-0.80;99.90;;;;;;4359418;28;657161;-69
2022/01/22 11:16:07;;;;;;;13.93;4.67;;;-0.80;99.90;;;;;;4335686;28;659160;-69
2022/01/22 11:18:54;;;;;;;8.13;4.07;;;-0.80;99.90;;;;;;4340520;28;657909;-69
2022/01/22 11:21:44;;;;;;;15.03;4.80;;;-0.30;99.90;;;;;;4360021;28;656701;-69
2022/01/22 11:24:34;;;;;;;14.27;5.40;;;-0.20;99.90;;;;;;4336125;28;658218;-69
2022/01/22 11:27:23;;;;;;;19.07;5.80;;;-0.20;99.90;;;;;;4336867;28;657332;-69
2022/01/22 11:30:13;;;;;;;16.03;5.83;;;-0.40;99.90;;;;;;4336809;28;658606;-69
2022/01/22 11:33:02;;;;;;;15.53;5.10;;;-0.40;99.90;;;;;;4336174;28;658595;-69
2022/01/22 11:35:58;;;;;;;15.27;5.13;;;-0.40;99.90;;;;;;4340243;28;658068;-69
2022/01/22 11:38:53;;;;;;;10.10;3.03;;;-0.50;99.90;;;;;;4337164;28;658732;-69
2022/01/22 11:41:50;;;;;;;14.03;5.00;;;-0.60;99.90;;;;;;4336419;28;658186;-69
2022/01/22 11:44:47;;;;;;;12.83;4.87;;;-0.60;99.90;;;;;;4319048;28;657606;-70
2022/01/22 11:47:36;;;;;;;16.27;5.10;;;-0.60;99.90;;;;;;4336532;28;658376;-70
2022/01/22 11:50:24;;;;;;;18.77;6.60;;;-0.80;99.90;;;;;;4340704;28;658050;-69
2022/01/22 11:53:26;;;;;;;15.37;5.17;;;-0.80;99.90;;;;;;4357637;28;658031;-69
2022/01/22 11:56:25;;;;;;;16.50;5.50;;;-0.80;99.90;;;;;;4340576;28;657655;-69
2022/01/22 11:59:26;;;;;;;18.03;6.37;;;-0.80;99.90;;;;;;4336664;28;657854;-69
2022/01/22 12:02:15;;;;;;;15.40;5.10;;;-0.80;99.90;;;;;;4315667;28;658079;-70
2022/01/22 12:05:04;;;;;;;25.03;6.30;;;-0.80;99.90;;;;;;4357193;28;657594;-70
2022/01/22 12:07:58;;;;;;;18.70;5.20;;;-0.90;99.90;;;;;;4358695;28;657954;-69
2022/01/22 12:14:27;;;;;;;19.07;5.90;;;-1.00;99.90;;;;;;4336076;28;657443;-69
2022/01/22 12:17:03;;;;;;;17.63;4.83;;;-1.20;99.90;;;;;;4322061;28;657751;-69
2022/01/22 12:20:05;;;;;;;16.00;5.10;;;-1.30;99.90;;;;;;4343014;28;657735;-69
2022/01/22 12:22:53;;;;;;;17.47;5.90;;;-1.40;99.90;;;;;;4337421;28;657465;-70
2022/01/22 12:25:50;;;;;;;12.37;4.87;;;-1.40;99.90;;;;;;4377756;28;659093;-69
2022/01/22 12:28:39;;;;;;;15.27;5.40;;;-1.50;99.90;;;;;;4337571;28;658037;-70
2022/01/22 12:31:28;;;;;;;16.23;5.10;;;-1.40;99.90;;;;;;4378693;28;657306;-69
2022/01/22 12:34:15;;;;;;;16.17;5.65;;;-1.30;99.90;;;;;;4360005;28;658529;-69
2022/01/22 12:37:19;;;;;;;12.10;4.27;;;-1.30;99.90;;;;;;4367569;28;657641;-69
2022/01/22 12:40:09;;;;;;;13.87;5.13;;;-1.20;99.90;;;;;;4355721;28;658216;-69
2022/01/22 12:43:04;;;;;;;15.00;5.50;;;-1.10;99.90;;;;;;4355877;28;657935;-68
2022/01/22 12:45:55;;;;;;;19.07;5.70;;;-0.90;99.90;;;;;;4355601;28;657440;-69
2022/01/22 12:48:43;;;;;;;15.57;5.07;;;-0.90;99.90;;;;;;4341897;28;657649;-70
2022/01/22 12:51:31;;;;;;;19.95;6.20;;;-1.10;99.90;;;;;;4378623;28;659554;-69
2022/01/22 12:54:28;;;;;;;23.30;6.13;;;-1.30;99.90;;;;;;4360010;28;657465;-69
2022/01/22 12:57:17;;;;;;;19.00;6.40;;;-1.30;99.90;;;;;;4355341;28;658418;-68
2022/01/22 13:00:09;;;;;;;18.00;6.40;;;-1.40;99.90;;;;;;4359797;28;657396;-69
2022/01/22 13:02:57;;;;;;;20.97;6.60;;;-1.50;99.90;;;;;;4355239;28;658495;-69
2022/01/22 13:05:46;;;;;;;20.03;7.23;;;-1.50;99.90;;;;;;4360170;28;658392;-69
2022/01/22 13:08:34;;;;;;;17.40;5.20;;;-1.50;99.90;;;;;;4355896;28;657532;-69
2022/01/22 13:11:25;;;;;;;19.30;6.37;;;-1.50;99.90;;;;;;4378010;28;658589;-68
2022/01/22 13:14:14;;;;;;;19.65;5.90;;;-1.50;99.90;;;;;;4351402;28;657706;-69
2022/01/22 13:17:02;;;;;;;18.50;4.57;;;-1.60;99.90;;;;;;4378246;28;658295;-69
2022/01/22 13:19:49;;;;;;;17.60;4.73;;;-1.60;99.90;;;;;;4359532;28;658768;-69
2022/01/22 13:22:38;;;;;;;16.93;5.47;;;-1.70;99.90;;;;;;4377608;28;657136;-68
2022/01/22 13:25:26;;;;;;;17.83;5.43;;;-1.80;99.90;;;;;;4354751;28;658432;-68
2022/01/22 13:28:16;;;;;;;18.50;6.03;;;-1.80;99.90;;;;;;4358494;28;657650;-68
2022/01/22 13:31:10;;;;;;;15.65;5.35;;;-1.80;99.90;;;;;;4358779;28;657306;-71
2022/01/22 13:34:13;;;;;;;20.10;5.80;;;-1.80;99.90;;;;;;4345854;28;657289;-70
2022/01/22 13:37:41;;;;;;;15.53;5.60;;;-1.80;99.90;;;;;;4334299;28;657662;-70
2022/01/22 13:40:34;;;;;;;13.60;4.33;;;-1.80;99.90;;;;;;4331824;28;658405;-70
2022/01/22 13:49:40;;;;;;;11.70;4.20;;;-1.80;99.90;;;;;;4354642;28;657843;-70
2022/01/22 13:52:32;;;;;;;17.27;6.07;;;-1.80;99.90;;;;;;4353994;28;657983;-70
2022/01/22 13:55:30;;;;;;;19.37;5.73;;;-1.80;99.90;;;;;;4332162;28;657930;-70
2022/01/22 13:58:27;;;;;;;15.53;5.33;;;-1.90;99.90;;;;;;4354607;28;657673;-70
2022/01/22 14:01:31;;;;;;;16.17;5.20;;;-2.00;99.90;;;;;;4331475;28;658022;-70
2022/01/22 14:04:25;;;;;;;13.63;5.00;;;-2.00;99.90;;;;;;4335961;28;658043;-70
2022/01/22 14:07:19;;;;;;;18.08;6.22;;;-2.00;99.90;;;;;;4303940;28;658008;-70
2022/01/22 14:10:15;;;;;;;15.37;6.30;;;-1.90;99.90;;;;;;4322498;28;657446;-70
2022/01/22 14:13:09;;;;;;;19.83;6.63;;;-1.90;99.90;;;;;;4305032;28;658325;-70
2022/01/22 14:16:22;;;;;;;24.77;7.13;;;-1.90;99.90;;;;;;4322904;28;658017;-70
2022/01/22 14:19:10;;;;;;;21.67;7.93;;;-1.90;99.90;;;;;;4300412;28;657775;-70
2022/01/22 14:21:58;;;;;;;19.70;6.83;;;-2.00;99.90;;;;;;4344410;28;657362;-70
2022/01/22 14:24:45;;;;;;;21.75;6.78;;;-2.00;99.90;;;;;;4325325;28;658407;-70
2022/01/22 14:27:33;;;;;;;20.77;7.17;;;-2.00;99.90;;;;;;4332416;28;657286;-71
2022/01/22 14:30:31;;;;;;;18.27;6.23;;;-2.00;99.90;;;;;;4347068;28;658245;-69
2022/01/22 14:33:20;;;;;;;17.27;6.40;;;-2.10;99.90;;;;;;4303939;28;657833;-71
2022/01/22 14:36:08;;;;;;;15.20;5.85;;;-2.10;99.90;;;;;;4328926;28;657647;-70
2022/01/22 14:39:12;;;;;;;21.03;7.23;;;-2.10;99.90;;;;;;4348646;28;657980;-70
2022/01/22 14:45:12;;;;;;;21.17;7.07;;;-2.10;99.90;;;;;;4322420;28;657552;-68
2022/01/22 14:48:01;;;;;;;25.92;9.32;;;-2.30;99.90;;;;;;4299861;28;658349;-70
2022/01/22 14:50:50;;;;;;;23.50;8.57;;;-2.20;99.90;;;;;;4325854;28;657556;-70
2022/01/22 14:53:37;;;;;;;24.43;9.50;;;-2.30;99.90;;;;;;4344340;28;657599;-70
2022/01/22 14:56:25;;;;;;;15.83;5.77;;;-2.40;99.90;;;;;;4321767;28;658712;-70
2022/01/22 14:59:13;;;;;;;20.07;7.43;;;-2.40;99.90;;;;;;4339673;28;657339;-70
2022/01/22 15:02:01;;;;;;;18.07;6.70;;;-2.40;99.90;;;;;;4343797;28;658670;-70
2022/01/22 15:04:48;;;;;;;20.65;7.40;;;-2.40;99.90;;;;;;4328231;28;657875;-70
2022/01/22 15:07:37;;;;;;;20.80;7.87;;;-2.40;99.90;;;;;;4375240;28;658656;-70
2022/01/22 15:10:25;;;;;;;23.23;7.33;;;-2.40;99.90;;;;;;4353616;28;659233;-69
2022/01/22 15:13:12;;;;;;;26.63;8.37;;;-2.40;99.90;;;;;;4375963;28;657497;-69
2022/01/22 15:16:01;;;;;;;28.70;9.53;;;-2.40;99.90;;;;;;4352765;28;658295;-69
2022/01/22 15:18:59;;;;;;;31.47;10.20;;;-2.50;99.90;;;;;;4358454;28;657184;-70
2022/01/22 15:21:48;;;;;;;26.87;8.40;;;-2.50;99.90;;;;;;4352933;28;658355;-69
2022/01/22 15:24:37;;;;;;;33.13;10.57;;;-2.50;99.90;;;;;;4357779;28;659615;-70
2022/01/22 15:27:25;;;;;;;36.63;10.87;;;-2.60;99.90;;;;;;4356420;28;658961;-69
2022/01/22 15:30:20;;;;;;;36.20;11.53;;;-2.60;99.90;;;;;;4369577;28;658908;-70
2022/01/22 15:33:19;;;;;;;29.00;10.03;;;-2.60;99.90;;;;;;4374344;28;658749;-69
2022/01/22 15:36:06;;;;;;;30.43;9.80;;;-2.60;99.90;;;;;;4351970;28;659381;-70
2022/01/22 15:38:54;;;;;;;24.43;8.10;;;-2.60;99.90;;;;;;4357416;28;657298;-70
2022/01/22 15:41:43;;;;;;;25.63;7.57;;;-2.60;99.90;;;;;;4375091;28;658038;-70
2022/01/22 15:44:31;;;;;;;30.13;9.27;;;-2.60;99.90;;;;;;4353393;28;657744;-70
2022/01/22 15:47:19;;;;;;;21.70;8.70;;;-2.50;99.90;;;;;;4357660;28;657741;-70
2022/01/22 15:50:07;;;;;;;31.17;9.00;;;-2.50;99.90;;;;;;4379329;28;658412;-70
2022/01/22 15:52:55;;;;;;;22.17;8.43;;;-2.50;99.90;;;;;;4356720;28;659698;-70
2022/01/22 15:55:44;;;;;;;28.50;8.17;;;-2.50;99.90;;;;;;4379248;28;658065;-70
2022/01/22 15:58:36;;;;;;;19.73;6.90;;;-2.50;99.90;;;;;;4355581;28;657676;-70
2022/01/22 16:01:27;;;;;;;26.77;9.37;;;-2.50;99.90;;;;;;4333813;28;658304;-70
2022/01/22 16:04:17;;;;;;;25.80;8.90;;;-2.50;99.90;;;;;;4345501;28;658645;-70